Time;durP1;ratioP1;P1;durP2;ratioP2;P2;SDS_P1;SDS_P2;PMS_P1;PMS_P2;Temp;Humidity;BMP_temperature;BMP_pressure;BME280_temperature;BME280_humidity;BME280_pressure;Samples;Min_cycle;Max_cycle;Signal;HPM_P1;HPM_P2
2023/09/13 00:00:39;;;;;;;23.85;9.57;;;22.20;99.90;;;;;;2076569;28;20026;-71
2023/09/13 00:01:39;;;;;;;11.55;9.95;;;22.20;99.90;;;;;;2076205;28;20125;-71
2023/09/13 00:02:43;;;;;;;10.23;9.23;;;22.20;99.90;;;;;;2076097;28;20029;-71
2023/09/13 00:03:43;;;;;;;10.57;9.48;;;22.20;99.90;;;;;;2075545;28;20034;-71
2023/09/13 00:04:44;;;;;;;11.02;9.77;;;22.20;99.90;;;;;;2074731;28;20043;-71
2023/09/13 00:05:46;;;;;;;11.27;10.10;;;22.20;99.90;;;;;;2075344;28;20029;-72
2023/09/13 00:06:47;;;;;;;11.27;10.07;;;22.20;99.90;;;;;;2076002;28;20033;-71
2023/09/13 00:07:48;;;;;;;10.75;9.75;;;22.20;99.90;;;;;;2075898;28;20092;-71
2023/09/13 00:08:48;;;;;;;9.82;8.95;;;22.20;99.90;;;;;;2076400;28;20037;-71
2023/09/13 00:09:49;;;;;;;15.73;10.70;;;22.20;99.90;;;;;;2074033;28;20416;-71
2023/09/13 00:10:49;;;;;;;11.35;10.25;;;22.10;99.90;;;;;;2075976;28;20022;-71
2023/09/13 00:11:50;;;;;;;11.10;10.05;;;22.20;99.90;;;;;;2075169;28;20026;-71
2023/09/13 00:12:50;;;;;;;11.98;10.82;;;22.20;99.90;;;;;;2076406;28;20025;-71
2023/09/13 00:13:51;;;;;;;14.38;11.38;;;22.10;99.90;;;;;;2072564;28;20030;-72
2023/09/13 00:14:52;;;;;;;11.10;10.10;;;22.10;99.90;;;;;;2075669;28;20037;-71
2023/09/13 00:15:52;;;;;;;12.10;10.00;;;22.10;99.90;;;;;;2075341;28;20096;-72
2023/09/13 00:16:53;;;;;;;11.23;9.68;;;22.10;99.90;;;;;;2074088;28;20056;-71
2023/09/13 00:17:53;;;;;;;10.95;9.93;;;22.10;99.90;;;;;;2076582;28;20058;-71
2023/09/13 00:18:54;;;;;;;11.77;9.88;;;22.10;99.90;;;;;;2076523;28;20515;-71
2023/09/13 00:19:58;;;;;;;12.43;10.63;;;22.10;99.90;;;;;;2077644;28;20025;-71
2023/09/13 00:20:58;;;;;;;10.77;9.77;;;22.10;99.90;;;;;;2076183;28;20021;-71
2023/09/13 00:21:59;;;;;;;17.50;10.77;;;22.00;99.90;;;;;;2074428;28;20056;-71
2023/09/13 00:22:59;;;;;;;11.13;10.02;;;22.00;99.90;;;;;;2077528;28;20025;-71
2023/09/13 00:24:00;;;;;;;13.60;10.43;;;22.00;99.90;;;;;;2074616;28;20036;-71
2023/09/13 00:25:00;;;;;;;12.02;10.93;;;22.00;99.90;;;;;;2074256;28;20568;-71
2023/09/13 00:26:01;;;;;;;11.95;10.80;;;22.00;99.90;;;;;;2076341;28;20057;-71
2023/09/13 00:27:02;;;;;;;11.85;10.82;;;22.00;99.90;;;;;;2077057;28;20071;-71
2023/09/13 00:28:02;;;;;;;11.50;10.43;;;22.00;99.90;;;;;;2075727;28;20033;-71
2023/09/13 00:29:03;;;;;;;10.00;9.00;;;22.00;99.90;;;;;;2076629;28;20021;-71
2023/09/13 00:30:06;;;;;;;10.93;9.82;;;22.00;99.90;;;;;;2074423;28;20037;-71
2023/09/13 00:31:10;;;;;;;11.80;10.60;;;22.00;99.90;;;;;;2073373;28;20040;-71
2023/09/13 00:32:11;;;;;;;11.93;10.75;;;21.90;99.90;;;;;;2076999;28;20044;-71
2023/09/13 00:33:11;;;;;;;12.05;10.75;;;21.90;99.90;;;;;;2074057;28;20040;-71
2023/09/13 00:34:12;;;;;;;10.65;9.57;;;21.90;99.90;;;;;;2075447;28;20030;-71
2023/09/13 00:35:12;;;;;;;10.23;9.23;;;21.90;99.90;;;;;;2077568;28;20068;-71
2023/09/13 00:36:13;;;;;;;11.45;10.40;;;21.90;99.90;;;;;;2078159;28;20504;-71
2023/09/13 00:37:13;;;;;;;13.40;11.45;;;21.90;99.90;;;;;;2078102;28;20542;-71
2023/09/13 00:38:14;;;;;;;11.65;10.45;;;21.90;99.90;;;;;;2078328;28;20096;-71
2023/09/13 00:39:14;;;;;;;12.43;11.10;;;21.90;99.90;;;;;;2077648;28;20057;-71
2023/09/13 00:40:15;;;;;;;11.05;10.05;;;21.90;99.90;;;;;;2078146;28;20048;-71
2023/09/13 00:41:15;;;;;;;10.68;9.60;;;21.80;99.90;;;;;;2076307;28;20026;-71
2023/09/13 00:42:16;;;;;;;12.07;10.88;;;21.80;99.90;;;;;;2074363;28;20021;-72
2023/09/13 00:43:16;;;;;;;13.00;11.20;;;21.80;99.90;;;;;;2075771;28;20060;-71
2023/09/13 00:44:17;;;;;;;13.68;10.30;;;21.80;99.90;;;;;;2075818;28;20797;-71
2023/09/13 00:45:17;;;;;;;14.20;10.27;;;21.80;99.90;;;;;;2075397;28;20033;-71
2023/09/13 00:46:18;;;;;;;10.82;9.73;;;21.80;99.90;;;;;;2077150;28;20038;-71
2023/09/13 00:47:19;;;;;;;12.55;11.32;;;21.70;99.90;;;;;;2076222;28;20033;-71
2023/09/13 00:48:22;;;;;;;13.23;11.77;;;21.80;99.90;;;;;;2075500;28;20671;-71
2023/09/13 00:49:22;;;;;;;11.23;10.13;;;21.70;99.90;;;;;;2075845;28;20038;-71
2023/09/13 00:50:24;;;;;;;12.65;11.35;;;21.80;99.90;;;;;;2075024;28;20030;-71
2023/09/13 00:51:24;;;;;;;12.45;11.25;;;21.70;99.90;;;;;;2076333;28;20029;-71
2023/09/13 00:52:25;;;;;;;14.15;11.98;;;21.70;99.90;;;;;;2074928;28;20040;-71
2023/09/13 00:53:26;;;;;;;14.20;12.70;;;21.70;99.90;;;;;;2075226;28;20040;-71
2023/09/13 00:54:27;;;;;;;14.20;12.38;;;21.70;99.90;;;;;;2075814;28;20029;-71
2023/09/13 00:55:28;;;;;;;14.02;12.63;;;21.70;99.90;;;;;;2076659;28;20022;-71
2023/09/13 00:56:28;;;;;;;14.85;11.63;;;21.70;99.90;;;;;;2075571;28;20106;-71
2023/09/13 00:57:30;;;;;;;21.80;16.35;;;21.70;99.90;;;;;;2075528;28;20492;-71
2023/09/13 00:58:31;;;;;;;16.65;14.38;;;21.70;99.90;;;;;;2075914;28;20017;-71
2023/09/13 00:59:32;;;;;;;16.77;15.05;;;21.80;99.90;;;;;;2072673;28;20121;-71
2023/09/13 01:00:33;;;;;;;19.48;17.20;;;21.70;99.90;;;;;;2076485;28;20480;-71
2023/09/13 01:01:34;;;;;;;18.58;16.73;;;21.80;99.90;;;;;;2075231;28;20095;-71
2023/09/13 01:02:35;;;;;;;17.48;15.75;;;21.70;99.90;;;;;;2074898;28;20148;-71
2023/09/13 01:03:36;;;;;;;17.63;15.93;;;21.70;99.90;;;;;;2074797;28;20567;-71
2023/09/13 01:04:38;;;;;;;19.95;17.92;;;21.80;99.90;;;;;;2075954;28;20416;-71
2023/09/13 01:05:39;;;;;;;19.88;16.70;;;21.80;99.90;;;;;;2075180;28;20496;-71
2023/09/13 01:06:41;;;;;;;23.23;18.00;;;21.70;99.90;;;;;;2073918;28;20569;-71
2023/09/13 01:07:44;;;;;;;17.88;15.98;;;21.70;99.90;;;;;;2076489;28;20025;-71
2023/09/13 01:08:45;;;;;;;20.35;18.23;;;21.80;99.90;;;;;;2074706;28;20130;-71
2023/09/13 01:09:46;;;;;;;17.50;15.73;;;21.80;99.90;;;;;;2076613;28;20086;-71
2023/09/13 01:10:47;;;;;;;20.05;18.02;;;21.70;99.90;;;;;;2075233;28;20477;-71
2023/09/13 01:11:48;;;;;;;21.15;18.92;;;21.80;99.90;;;;;;2076957;28;20041;-71
2023/09/13 01:12:49;;;;;;;25.80;20.23;;;21.80;99.90;;;;;;2075138;28;20112;-71
2023/09/13 01:13:50;;;;;;;22.73;20.33;;;21.70;99.90;;;;;;2075405;28;20100;-71
2023/09/13 01:14:50;;;;;;;19.40;17.38;;;21.70;99.90;;;;;;2075208;28;20030;-71
2023/09/13 01:16:14;;;;;;;25.20;22.55;;;21.70;99.90;;;;;;2076018;28;20036;-71
2023/09/13 01:17:29;;;;;;;23.77;21.38;;;21.70;99.90;;;;;;2076721;28;20034;-71
2023/09/13 01:18:47;;;;;;;23.00;20.60;;;21.70;99.90;;;;;;2074864;28;20377;-71
2023/09/13 01:20:00;;;;;;;23.10;20.83;;;21.70;99.90;;;;;;2075867;28;20030;-71
2023/09/13 01:21:44;;;;;;;21.88;19.58;;;21.70;99.90;;;;;;2076737;28;21512;-71
2023/09/13 01:22:59;;;;;;;22.70;20.40;;;21.70;99.90;;;;;;2073521;28;20096;-71
2023/09/13 01:24:27;;;;;;;27.25;24.55;;;21.70;99.90;;;;;;2076645;28;20125;-71
2023/09/13 01:25:44;;;;;;;28.63;25.45;;;21.60;99.90;;;;;;2076251;28;20036;-71
2023/09/13 01:27:08;;;;;;;25.67;23.05;;;21.60;99.90;;;;;;2075038;28;20057;-71
2023/09/13 01:28:46;;;;;;;27.90;24.98;;;21.60;99.90;;;;;;2075750;28;20537;-71
2023/09/13 01:29:49;;;;;;;27.40;24.50;;;21.60;99.90;;;;;;2075781;28;20065;-71
2023/09/13 01:30:49;;;;;;;34.70;31.17;;;21.60;99.90;;;;;;2074261;28;20030;-71
2023/09/13 01:31:50;;;;;;;30.17;27.08;;;21.60;99.90;;;;;;2075415;28;20029;-71
2023/09/13 01:32:51;;;;;;;29.65;26.52;;;21.60;99.90;;;;;;2077896;28;20030;-72
2023/09/13 01:33:52;;;;;;;33.67;30.13;;;21.60;99.90;;;;;;2074158;28;20535;-71
2023/09/13 01:34:53;;;;;;;27.65;24.90;;;21.70;99.90;;;;;;2075931;28;20029;-71
2023/09/13 01:35:54;;;;;;;23.90;21.52;;;21.70;99.90;;;;;;2076589;28;20030;-71
2023/09/13 01:36:56;;;;;;;24.50;21.90;;;21.70;99.90;;;;;;2074615;28;20057;-71
2023/09/13 01:37:57;;;;;;;28.50;25.70;;;21.70;99.90;;;;;;2077327;28;20024;-71
2023/09/13 01:38:57;;;;;;;29.02;25.92;;;21.70;99.90;;;;;;2075629;28;20100;-71
2023/09/13 01:39:58;;;;;;;35.58;31.80;;;21.70;99.90;;;;;;2075532;28;20025;-71
2023/09/13 01:41:10;;;;;;;34.33;30.88;;;21.70;99.90;;;;;;2074714;28;20025;-71
2023/09/13 01:42:11;;;;;;;35.22;31.60;;;21.70;99.90;;;;;;2077126;28;20030;-71
2023/09/13 01:43:13;;;;;;;33.58;30.15;;;21.70;99.90;;;;;;2070284;28;20087;-71
2023/09/13 01:44:15;;;;;;;32.53;29.00;;;21.70;99.90;;;;;;2074245;28;20030;-71
2023/09/13 01:45:16;;;;;;;34.72;31.13;;;21.70;99.90;;;;;;2075262;28;20084;-71
2023/09/13 01:46:17;;;;;;;36.97;32.85;;;21.80;99.90;;;;;;2075393;28;20033;-71
2023/09/13 01:47:19;;;;;;;45.35;34.28;;;21.80;99.90;;;;;;2076096;28;20069;-71
2023/09/13 01:48:20;;;;;;;38.83;34.67;;;21.80;99.90;;;;;;2075645;28;20030;-71
2023/09/13 01:49:22;;;;;;;38.30;34.47;;;21.70;99.90;;;;;;2073076;28;20041;-71
2023/09/13 01:50:22;;;;;;;32.45;29.17;;;21.80;99.90;;;;;;2075487;28;20029;-71
2023/09/13 01:51:27;;;;;;;32.28;28.88;;;21.80;99.90;;;;;;2074690;28;20053;-71
2023/09/13 01:52:28;;;;;;;30.95;27.70;;;21.80;99.90;;;;;;2074370;28;20056;-71
2023/09/13 01:53:29;;;;;;;34.63;31.13;;;21.80;99.90;;;;;;2074637;28;20033;-71
2023/09/13 01:54:33;;;;;;;37.85;33.88;;;21.80;99.90;;;;;;2074089;28;20033;-71
2023/09/13 01:55:35;;;;;;;30.75;27.63;;;21.80;99.90;;;;;;2075491;28;20033;-71
2023/09/13 01:56:35;;;;;;;32.75;29.42;;;21.80;99.90;;;;;;2074150;28;20021;-71
2023/09/13 01:57:36;;;;;;;31.58;28.30;;;21.80;99.90;;;;;;2076524;28;20033;-71
2023/09/13 01:58:36;;;;;;;37.00;33.10;;;21.80;99.90;;;;;;2074852;28;20044;-71
2023/09/13 01:59:37;;;;;;;31.48;28.27;;;21.80;99.90;;;;;;2076593;28;20025;-70
2023/09/13 02:00:39;;;;;;;32.15;28.92;;;21.80;99.90;;;;;;2076718;28;20048;-71
2023/09/13 02:01:40;;;;;;;35.90;32.10;;;21.80;99.90;;;;;;2075488;28;20022;-71
2023/09/13 02:02:40;;;;;;;37.95;34.08;;;21.80;99.90;;;;;;2075204;28;20056;-71
2023/09/13 02:03:41;;;;;;;35.20;30.80;;;21.80;99.90;;;;;;2076635;28;20018;-71
2023/09/13 02:04:42;;;;;;;40.95;34.97;;;21.80;99.90;;;;;;2074703;28;20129;-71
2023/09/13 02:05:42;;;;;;;41.05;36.80;;;21.80;99.90;;;;;;2074556;28;20029;-71
2023/09/13 02:06:43;;;;;;;39.88;35.60;;;21.80;99.90;;;;;;2077094;28;20530;-71
2023/09/13 02:07:43;;;;;;;40.22;36.05;;;21.80;99.90;;;;;;2074532;28;20033;-71
2023/09/13 02:08:45;;;;;;;40.95;36.50;;;21.80;99.90;;;;;;2074109;28;20022;-71
2023/09/13 02:09:46;;;;;;;35.10;31.55;;;21.80;99.90;;;;;;2076865;28;20017;-71
2023/09/13 02:10:48;;;;;;;37.63;33.95;;;21.80;99.90;;;;;;2069203;28;20026;-71
2023/09/13 02:11:48;;;;;;;38.58;34.65;;;21.80;99.90;;;;;;2075337;28;20033;-71
2023/09/13 02:12:49;;;;;;;43.88;38.38;;;21.80;99.90;;;;;;2073117;28;20120;-71
2023/09/13 02:13:50;;;;;;;41.90;37.67;;;21.80;99.90;;;;;;2076286;28;20428;-72
2023/09/13 02:14:51;;;;;;;41.17;36.78;;;21.80;99.90;;;;;;2075154;28;20532;-72
2023/09/13 02:15:51;;;;;;;40.25;35.70;;;21.80;99.90;;;;;;2076479;28;20396;-72
2023/09/13 02:16:52;;;;;;;37.67;33.80;;;21.70;99.90;;;;;;2075596;28;20030;-72
2023/09/13 02:17:52;;;;;;;37.33;33.50;;;21.70;99.90;;;;;;2075061;28;20018;-72
2023/09/13 02:18:53;;;;;;;34.92;31.13;;;21.70;99.90;;;;;;2074312;28;20033;-72
2023/09/13 02:19:53;;;;;;;33.85;30.52;;;21.70;99.90;;;;;;2075027;28;20034;-72
2023/09/13 02:20:54;;;;;;;37.92;34.10;;;21.70;99.90;;;;;;2073276;28;20034;-72
2023/09/13 02:21:55;;;;;;;36.55;32.95;;;21.70;99.90;;;;;;2075497;28;20548;-71
2023/09/13 02:22:55;;;;;;;32.70;29.42;;;21.70;99.90;;;;;;2076065;28;20140;-71
2023/09/13 02:23:56;;;;;;;34.38;31.02;;;21.70;99.90;;;;;;2074286;28;20128;-71
2023/09/13 02:24:57;;;;;;;29.60;26.60;;;21.70;99.90;;;;;;2075685;28;20034;-71
2023/09/13 02:25:57;;;;;;;32.58;29.38;;;21.70;99.90;;;;;;2075037;28;20032;-71
2023/09/13 02:26:58;;;;;;;34.38;30.25;;;21.70;99.90;;;;;;2075858;28;20041;-71
2023/09/13 02:27:59;;;;;;;32.97;29.88;;;21.70;99.90;;;;;;2075177;28;20053;-71
2023/09/13 02:28:59;;;;;;;32.92;29.58;;;21.70;99.90;;;;;;2074880;28;20029;-71
2023/09/13 02:30:04;;;;;;;35.35;31.95;;;21.70;99.90;;;;;;2076164;28;20030;-71
2023/09/13 02:31:04;;;;;;;29.38;26.48;;;21.70;99.90;;;;;;2075221;28;20034;-71
2023/09/13 02:32:05;;;;;;;29.80;26.83;;;21.70;99.90;;;;;;2076231;28;20025;-72
2023/09/13 02:33:06;;;;;;;32.45;29.30;;;21.70;99.90;;;;;;2078616;28;20095;-71
2023/09/13 02:34:07;;;;;;;32.20;28.90;;;21.70;99.90;;;;;;2075893;28;20030;-71
2023/09/13 02:35:08;;;;;;;28.35;25.67;;;21.70;99.90;;;;;;2076834;28;20037;-71
2023/09/13 02:36:09;;;;;;;23.65;21.25;;;21.70;99.90;;;;;;2075827;28;20037;-72
2023/09/13 02:37:10;;;;;;;29.40;26.33;;;21.70;99.90;;;;;;2077602;28;20053;-71
2023/09/13 02:38:10;;;;;;;29.52;26.65;;;21.70;99.90;;;;;;2076886;28;20044;-71
2023/09/13 02:39:31;;;;;;;31.10;28.10;;;21.70;99.90;;;;;;2076998;28;20657;-71
2023/09/13 02:40:31;;;;;;;31.50;28.30;;;21.70;99.90;;;;;;2077855;28;20022;-71
2023/09/13 02:41:32;;;;;;;27.58;24.90;;;21.70;99.90;;;;;;2076291;28;20499;-72
2023/09/13 02:42:32;;;;;;;27.33;24.75;;;21.70;99.90;;;;;;2077384;28;20036;-71
2023/09/13 02:43:33;;;;;;;33.08;29.73;;;21.70;99.90;;;;;;2075905;28;20022;-72
2023/09/13 02:44:34;;;;;;;28.90;25.83;;;21.70;99.90;;;;;;2074911;28;20040;-72
2023/09/13 02:45:35;;;;;;;34.70;30.33;;;21.70;99.90;;;;;;2077951;28;20025;-72
2023/09/13 02:46:35;;;;;;;34.20;30.60;;;21.70;99.90;;;;;;2076860;28;20100;-72
2023/09/13 02:47:36;;;;;;;29.73;26.75;;;21.70;99.90;;;;;;2077196;28;20026;-72
2023/09/13 02:48:37;;;;;;;29.60;25.83;;;21.70;99.90;;;;;;2077538;28;20069;-72
2023/09/13 02:49:37;;;;;;;30.73;27.67;;;21.70;99.90;;;;;;2075776;28;20061;-72
2023/09/13 02:50:41;;;;;;;31.88;28.73;;;21.70;99.90;;;;;;2077982;28;20491;-72
2023/09/13 02:51:42;;;;;;;26.63;23.73;;;21.70;99.90;;;;;;2078136;28;20025;-72
2023/09/13 02:52:43;;;;;;;29.30;26.45;;;21.70;99.90;;;;;;2079556;28;20030;-72
2023/09/13 02:53:43;;;;;;;31.33;28.25;;;21.70;99.90;;;;;;2076388;28;20022;-72
2023/09/13 02:54:44;;;;;;;32.17;28.73;;;21.70;99.90;;;;;;2075068;28;20017;-72
2023/09/13 02:55:45;;;;;;;35.10;31.50;;;21.70;99.90;;;;;;2075388;28;20101;-72
2023/09/13 02:56:46;;;;;;;30.02;27.15;;;21.70;99.90;;;;;;2076764;28;20083;-72
2023/09/13 02:57:47;;;;;;;28.98;26.20;;;21.70;99.90;;;;;;2078137;28;20060;-72
2023/09/13 02:58:47;;;;;;;31.75;28.55;;;21.70;99.90;;;;;;2079164;28;20022;-72
2023/09/13 02:59:48;;;;;;;31.65;28.40;;;21.70;99.90;;;;;;2078100;28;20022;-72
2023/09/13 03:00:48;;;;;;;34.53;31.08;;;21.70;99.90;;;;;;2076775;28;20061;-72
2023/09/13 03:01:50;;;;;;;28.13;25.27;;;21.70;99.90;;;;;;2077831;28;20929;-72
2023/09/13 03:02:50;;;;;;;33.15;29.83;;;21.70;99.90;;;;;;2078106;28;20021;-72
2023/09/13 03:03:51;;;;;;;30.60;27.55;;;21.60;99.90;;;;;;2076797;28;20041;-72
2023/09/13 03:04:53;;;;;;;34.47;30.83;;;21.70;99.90;;;;;;2078104;28;20040;-72
2023/09/13 03:05:54;;;;;;;32.80;29.50;;;21.70;99.90;;;;;;2077640;28;20061;-72
2023/09/13 03:06:54;;;;;;;32.70;29.50;;;21.70;99.90;;;;;;2076528;28;20088;-72
2023/09/13 03:07:56;;;;;;;33.97;30.52;;;21.70;99.90;;;;;;2077129;28;20548;-72
2023/09/13 03:08:57;;;;;;;28.60;25.77;;;21.70;99.90;;;;;;2074813;28;20022;-72
2023/09/13 03:09:58;;;;;;;32.13;28.92;;;21.70;99.90;;;;;;2076102;28;20034;-72
2023/09/13 03:11:14;;;;;;;28.33;25.63;;;21.70;99.90;;;;;;2077157;28;20029;-72
2023/09/13 03:12:15;;;;;;;28.63;25.85;;;21.70;99.90;;;;;;2078712;28;20111;-72
2023/09/13 03:13:15;;;;;;;26.13;23.58;;;21.70;99.90;;;;;;2082545;28;20365;-72
2023/09/13 03:14:16;;;;;;;26.52;24.02;;;21.60;99.90;;;;;;2085402;28;20029;-72
2023/09/13 03:15:16;;;;;;;28.40;25.70;;;21.70;99.90;;;;;;2076928;28;20840;-72
2023/09/13 03:16:21;;;;;;;25.75;23.27;;;21.60;99.90;;;;;;2076025;28;20159;-72
2023/09/13 03:17:22;;;;;;;26.65;24.08;;;21.70;99.90;;;;;;2076245;28;20492;-72
2023/09/13 03:18:22;;;;;;;30.02;27.02;;;21.60;99.90;;;;;;2079168;28;20364;-72
2023/09/13 03:19:23;;;;;;;29.38;26.35;;;21.60;99.90;;;;;;2079477;28;20038;-72
2023/09/13 03:20:23;;;;;;;27.02;24.42;;;21.70;99.90;;;;;;2074800;28;20105;-72
2023/09/13 03:21:24;;;;;;;26.80;24.08;;;21.70;99.90;;;;;;2078088;28;20025;-72
2023/09/13 03:22:25;;;;;;;29.55;26.23;;;21.70;99.90;;;;;;2075544;28;20033;-72
2023/09/13 03:23:25;;;;;;;29.17;26.05;;;21.70;99.90;;;;;;2077072;28;20032;-72
2023/09/13 03:24:26;;;;;;;26.70;24.00;;;21.70;99.90;;;;;;2076336;28;20033;-72
2023/09/13 03:25:26;;;;;;;28.83;25.85;;;21.60;99.90;;;;;;2075089;28;20022;-72
2023/09/13 03:26:27;;;;;;;26.17;23.52;;;21.70;99.90;;;;;;2075672;28;20030;-72
2023/09/13 03:27:27;;;;;;;27.77;24.90;;;21.70;99.90;;;;;;2078711;28;20041;-72
2023/09/13 03:28:28;;;;;;;29.27;26.20;;;21.70;99.90;;;;;;2079720;28;20022;-72
2023/09/13 03:29:28;;;;;;;30.35;27.30;;;21.70;99.90;;;;;;2078760;28;20037;-72
2023/09/13 03:30:29;;;;;;;32.72;29.40;;;21.60;99.90;;;;;;2075082;28;20655;-72
2023/09/13 03:31:32;;;;;;;35.50;31.85;;;21.70;99.90;;;;;;2076786;28;20093;-72
2023/09/13 03:32:32;;;;;;;27.60;24.58;;;21.60;99.90;;;;;;2076189;28;20479;-72
2023/09/13 03:33:33;;;;;;;32.30;29.00;;;21.60;99.90;;;;;;2078003;28;20022;-72
2023/09/13 03:34:35;;;;;;;29.65;26.63;;;21.60;99.90;;;;;;2076694;28;20480;-72
2023/09/13 03:35:36;;;;;;;35.83;32.08;;;21.60;99.90;;;;;;2075893;28;20025;-72
2023/09/13 03:36:36;;;;;;;33.10;29.73;;;21.60;99.90;;;;;;2078277;28;20025;-72
2023/09/13 03:37:37;;;;;;;33.72;30.20;;;21.60;99.90;;;;;;2076629;28;20033;-72
2023/09/13 03:38:39;;;;;;;34.38;30.85;;;21.60;99.90;;;;;;2076647;28;20380;-72
2023/09/13 03:39:40;;;;;;;32.13;28.88;;;21.60;99.90;;;;;;2075878;28;20070;-72
2023/09/13 03:40:40;;;;;;;33.20;29.90;;;21.60;99.90;;;;;;2083058;28;20033;-72
2023/09/13 03:41:41;;;;;;;34.63;30.95;;;21.60;99.90;;;;;;2083820;28;20035;-72
2023/09/13 03:42:41;;;;;;;30.95;27.77;;;21.60;99.90;;;;;;2075278;28;20033;-72
2023/09/13 03:43:42;;;;;;;32.88;29.58;;;21.60;99.90;;;;;;2077831;28;20026;-72
2023/09/13 03:44:42;;;;;;;31.08;27.98;;;21.60;99.90;;;;;;2076095;28;20056;-72
2023/09/13 03:45:43;;;;;;;30.98;28.00;;;21.60;99.90;;;;;;2076582;28;20079;-72
2023/09/13 03:46:44;;;;;;;32.05;29.00;;;21.60;99.90;;;;;;2077116;28;20409;-72
2023/09/13 03:47:44;;;;;;;34.20;30.85;;;21.60;99.90;;;;;;2077004;28;20033;-72
2023/09/13 03:48:45;;;;;;;34.17;30.67;;;21.60;99.90;;;;;;2077435;28;20100;-72
2023/09/13 03:49:45;;;;;;;35.70;32.20;;;21.60;99.90;;;;;;2077462;28;20036;-72
2023/09/13 03:50:46;;;;;;;32.58;29.30;;;21.60;99.90;;;;;;2074584;28;20080;-72
2023/09/13 03:51:46;;;;;;;34.38;30.98;;;21.60;99.90;;;;;;2076971;28;20053;-72
2023/09/13 03:52:47;;;;;;;34.80;31.50;;;21.50;99.90;;;;;;2077374;28;20017;-72
2023/09/13 03:53:48;;;;;;;36.13;32.65;;;21.50;99.90;;;;;;2075095;28;20505;-71
2023/09/13 03:54:48;;;;;;;35.50;31.98;;;21.50;99.90;;;;;;2078170;28;20088;-71
2023/09/13 03:55:49;;;;;;;31.10;28.10;;;21.50;99.90;;;;;;2075738;28;20079;-71
2023/09/13 03:56:49;;;;;;;29.25;26.40;;;21.50;99.90;;;;;;2075162;28;20370;-71
2023/09/13 03:57:50;;;;;;;36.58;33.00;;;21.50;99.90;;;;;;2075934;28;20033;-71
2023/09/13 03:58:50;;;;;;;34.95;31.63;;;21.50;99.90;;;;;;2077680;28;20101;-71
2023/09/13 03:59:51;;;;;;;31.17;28.13;;;21.50;99.90;;;;;;2077637;28;20079;-71
2023/09/13 04:00:52;;;;;;;33.50;30.33;;;21.50;99.90;;;;;;2077428;28;20514;-71
2023/09/13 04:01:53;;;;;;;31.88;28.77;;;21.50;99.90;;;;;;2076160;28;20072;-71
2023/09/13 04:02:54;;;;;;;26.70;24.20;;;21.50;99.90;;;;;;2075183;28;20087;-71
2023/09/13 04:03:54;;;;;;;33.60;30.30;;;21.50;99.90;;;;;;2075036;28;20029;-71
2023/09/13 04:04:55;;;;;;;33.88;30.58;;;21.50;99.90;;;;;;2076188;28;20476;-71
2023/09/13 04:05:55;;;;;;;34.30;30.80;;;21.50;99.90;;;;;;2075821;28;20041;-71
2023/09/13 04:06:56;;;;;;;32.53;29.33;;;21.50;99.90;;;;;;2075294;28;20373;-71
2023/09/13 04:08:00;;;;;;;35.50;31.95;;;21.50;99.90;;;;;;2076712;28;20038;-71
2023/09/13 04:09:00;;;;;;;29.33;26.42;;;21.50;99.90;;;;;;2077794;28;20442;-71
2023/09/13 04:10:01;;;;;;;29.25;26.40;;;21.50;99.90;;;;;;2074843;28;20041;-71
2023/09/13 04:11:02;;;;;;;30.02;26.98;;;21.50;99.90;;;;;;2074967;28;20041;-71
2023/09/13 04:12:02;;;;;;;32.80;29.58;;;21.50;99.90;;;;;;2075439;28;20037;-71
2023/09/13 04:13:03;;;;;;;28.30;25.60;;;21.50;99.90;;;;;;2075253;28;20033;-71
2023/09/13 04:14:06;;;;;;;31.42;28.35;;;21.50;99.90;;;;;;2076293;28;20041;-71
2023/09/13 04:15:07;;;;;;;32.83;29.45;;;21.60;99.90;;;;;;2075710;28;20025;-71
2023/09/13 04:16:13;;;;;;;29.10;26.27;;;21.50;99.90;;;;;;2074399;28;20038;-71
2023/09/13 04:17:14;;;;;;;23.92;21.60;;;21.50;99.90;;;;;;2077009;28;20476;-71
2023/09/13 04:18:14;;;;;;;30.60;27.80;;;21.50;99.90;;;;;;2077092;28;20393;-71
2023/09/13 04:19:15;;;;;;;27.90;25.30;;;21.50;99.90;;;;;;2076583;28;20030;-71
2023/09/13 04:20:16;;;;;;;32.20;29.05;;;21.50;99.90;;;;;;2075685;28;20033;-71
2023/09/13 04:21:16;;;;;;;23.75;21.45;;;21.50;99.90;;;;;;2076052;28;20087;-71
2023/09/13 04:22:17;;;;;;;25.42;23.02;;;21.60;99.90;;;;;;2076028;28;20769;-71
2023/09/13 04:23:17;;;;;;;23.23;21.05;;;21.50;99.90;;;;;;2075838;28;20484;-71
2023/09/13 04:24:18;;;;;;;22.33;20.13;;;21.50;99.90;;;;;;2076493;28;20021;-71
2023/09/13 04:25:19;;;;;;;23.08;20.92;;;21.50;99.90;;;;;;2076593;28;20037;-71
2023/09/13 04:26:21;;;;;;;25.20;22.88;;;21.50;99.90;;;;;;2077709;28;20025;-71
2023/09/13 04:27:23;;;;;;;28.80;25.90;;;21.50;99.90;;;;;;2076000;28;20037;-71
2023/09/13 04:28:23;;;;;;;32.80;29.42;;;21.60;99.90;;;;;;2074903;28;20135;-71
2023/09/13 04:29:24;;;;;;;30.10;27.25;;;21.50;99.90;;;;;;2076975;28;20025;-71
2023/09/13 04:30:24;;;;;;;31.90;28.58;;;21.50;99.90;;;;;;2075924;28;20058;-71
2023/09/13 04:31:27;;;;;;;29.95;26.98;;;21.50;99.90;;;;;;2076893;28;20536;-71
2023/09/13 04:32:28;;;;;;;29.73;26.85;;;21.50;99.90;;;;;;2084439;28;20438;-71
2023/09/13 04:33:47;;;;;;;26.77;24.13;;;21.50;99.90;;;;;;2083157;28;20037;-71
2023/09/13 04:34:47;;;;;;;21.05;19.05;;;21.50;99.90;;;;;;2074959;28;20548;-71
2023/09/13 04:35:48;;;;;;;30.33;27.15;;;21.50;99.90;;;;;;2077496;28;20612;-71
2023/09/13 04:36:49;;;;;;;30.67;27.60;;;21.50;99.90;;;;;;2075842;28;20519;-71
2023/09/13 04:37:49;;;;;;;30.60;27.63;;;21.50;99.90;;;;;;2076258;28;20162;-71
2023/09/13 04:38:50;;;;;;;27.67;24.92;;;21.50;99.90;;;;;;2075958;28;20026;-71
2023/09/13 04:39:50;;;;;;;31.10;28.05;;;21.50;99.90;;;;;;2077023;28;21342;-71
2023/09/13 04:40:51;;;;;;;26.85;24.15;;;21.50;99.90;;;;;;2074897;28;20049;-71
2023/09/13 04:41:51;;;;;;;25.27;22.85;;;21.50;99.90;;;;;;2074790;28;20033;-71
2023/09/13 04:43:15;;;;;;;30.08;27.02;;;21.50;99.90;;;;;;2074631;28;20037;-71
2023/09/13 04:44:16;;;;;;;27.98;25.35;;;21.50;99.90;;;;;;2075165;28;20057;-71
2023/09/13 04:45:16;;;;;;;27.67;24.92;;;21.50;99.90;;;;;;2077184;28;20072;-71
2023/09/13 04:46:17;;;;;;;23.30;21.02;;;21.50;99.90;;;;;;2077605;28;20025;-71
2023/09/13 04:47:18;;;;;;;25.52;23.10;;;21.50;99.90;;;;;;2076862;28;20029;-71
2023/09/13 04:48:19;;;;;;;27.60;24.80;;;21.40;99.90;;;;;;2076801;28;20477;-71
2023/09/13 04:49:19;;;;;;;23.17;21.08;;;21.40;99.90;;;;;;2075244;28;20389;-71
2023/09/13 04:50:20;;;;;;;25.05;22.75;;;21.40;99.90;;;;;;2074559;28;20493;-71
2023/09/13 04:51:20;;;;;;;23.80;21.70;;;21.40;99.90;;;;;;2076058;28;20034;-71
2023/09/13 04:52:21;;;;;;;22.00;19.80;;;21.40;99.90;;;;;;2074534;28;20037;-71
2023/09/13 04:53:22;;;;;;;24.83;21.30;;;21.40;99.90;;;;;;2075685;28;20045;-71
2023/09/13 04:54:23;;;;;;;22.98;20.77;;;21.40;99.90;;;;;;2076620;28;20029;-71
2023/09/13 04:55:26;;;;;;;22.45;20.15;;;21.40;99.90;;;;;;2074427;28;20064;-71
2023/09/13 04:56:26;;;;;;;23.65;21.45;;;21.40;99.90;;;;;;2076974;28;20031;-71
2023/09/13 04:57:27;;;;;;;21.27;19.25;;;21.40;99.90;;;;;;2076640;28;20034;-71
2023/09/13 04:58:29;;;;;;;24.27;22.08;;;21.40;99.90;;;;;;2076464;28;20021;-71
2023/09/13 04:59:45;;;;;;;23.98;21.67;;;21.40;99.90;;;;;;2074208;28;20121;-71
2023/09/13 05:00:46;;;;;;;24.17;21.83;;;21.40;99.90;;;;;;2073603;28;20055;-71
2023/09/13 05:01:46;;;;;;;27.33;24.65;;;21.40;99.90;;;;;;2074559;28;20028;-71
2023/09/13 05:02:47;;;;;;;26.40;23.75;;;21.40;99.90;;;;;;2074847;28;20495;-72
2023/09/13 05:03:48;;;;;;;26.48;24.02;;;21.40;99.90;;;;;;2077276;28;20152;-72
2023/09/13 05:04:48;;;;;;;28.88;26.17;;;21.40;99.90;;;;;;2077104;28;20140;-72
2023/09/13 05:05:49;;;;;;;29.02;26.17;;;21.40;99.90;;;;;;2075487;28;20026;-72
2023/09/13 05:06:50;;;;;;;30.77;27.65;;;21.40;99.90;;;;;;2075389;28;20031;-72
2023/09/13 05:07:50;;;;;;;31.83;28.58;;;21.40;99.90;;;;;;2075715;28;20022;-72
2023/09/13 05:08:52;;;;;;;30.92;27.85;;;21.40;99.90;;;;;;2074565;28;20105;-72
2023/09/13 05:09:53;;;;;;;33.00;29.67;;;21.40;99.90;;;;;;2074850;28;20025;-71
2023/09/13 05:10:55;;;;;;;32.22;28.85;;;21.40;99.90;;;;;;2074614;28;20025;-72
2023/09/13 05:11:55;;;;;;;32.28;29.08;;;21.40;99.90;;;;;;2074741;28;20022;-72
2023/09/13 05:12:56;;;;;;;33.33;30.05;;;21.40;99.90;;;;;;2075291;28;20112;-72
2023/09/13 05:14:13;;;;;;;31.20;27.90;;;21.40;99.90;;;;;;2076509;28;20108;-72
2023/09/13 05:15:14;;;;;;;30.40;27.30;;;21.40;99.90;;;;;;2076846;28;20052;-72